sensor_id;sensor_type;location;lat;lon;timestamp;P1;durP1;ratioP1;P2;durP2;ratioP2
60873;SDS011;46715;40.642;-7.920;2022-10-16T00:00:25;18.65;;;11.13;;
60873;SDS011;46715;40.642;-7.920;2022-10-16T00:02:26;13.77;;;10.20;;
60873;SDS011;46715;40.642;-7.920;2022-10-16T00:04:26;15.20;;;10.43;;
60873;SDS011;46715;40.642;-7.920;2022-10-16T00:06:27;15.93;;;10.73;;
60873;SDS011;46715;40.642;-7.920;2022-10-16T00:10:30;12.88;;;9.63;;
60873;SDS011;46715;40.642;-7.920;2022-10-16T00:12:30;15.87;;;10.50;;
60873;SDS011;46715;40.642;-7.920;2022-10-16T00:14:31;14.97;;;10.37;;
60873;SDS011;46715;40.642;-7.920;2022-10-16T00:16:33;16.33;;;11.55;;
60873;SDS011;46715;40.642;-7.920;2022-10-16T00:18:34;17.92;;;11.45;;
60873;SDS011;46715;40.642;-7.920;2022-10-16T00:20:35;19.63;;;12.70;;
60873;SDS011;46715;40.642;-7.920;2022-10-16T00:22:37;22.45;;;12.70;;
60873;SDS011;46715;40.642;-7.920;2022-10-16T00:24:37;20.07;;;13.10;;
60873;SDS011;46715;40.642;-7.920;2022-10-16T00:26:38;20.33;;;13.27;;
60873;SDS011;46715;40.642;-7.920;2022-10-16T00:30:41;18.00;;;12.57;;
60873;SDS011;46715;40.642;-7.920;2022-10-16T00:32:41;19.27;;;11.67;;
60873;SDS011;46715;40.642;-7.920;2022-10-16T00:34:42;18.43;;;12.33;;
60873;SDS011;46715;40.642;-7.920;2022-10-16T00:36:43;17.42;;;11.10;;
60873;SDS011;46715;40.642;-7.920;2022-10-16T00:38:44;16.07;;;9.87;;
60873;SDS011;46715;40.642;-7.920;2022-10-16T00:40:45;18.02;;;11.07;;
60873;SDS011;46715;40.642;-7.920;2022-10-16T00:42:47;12.18;;;9.73;;
60873;SDS011;46715;40.642;-7.920;2022-10-16T00:44:52;17.30;;;9.27;;
60873;SDS011;46715;40.642;-7.920;2022-10-16T00:46:56;12.32;;;9.52;;
60873;SDS011;46715;40.642;-7.920;2022-10-16T00:49:01;14.00;;;10.10;;
60873;SDS011;46715;40.642;-7.920;2022-10-16T00:51:05;14.15;;;9.60;;
60873;SDS011;46715;40.642;-7.920;2022-10-16T00:53:08;14.63;;;10.07;;
60873;SDS011;46715;40.642;-7.920;2022-10-16T00:55:10;14.75;;;10.18;;
60873;SDS011;46715;40.642;-7.920;2022-10-16T00:57:11;14.00;;;10.10;;
60873;SDS011;46715;40.642;-7.920;2022-10-16T00:59:20;15.27;;;10.70;;
60873;SDS011;46715;40.642;-7.920;2022-10-16T01:01:25;14.93;;;11.02;;
60873;SDS011;46715;40.642;-7.920;2022-10-16T01:03:27;16.60;;;11.23;;
60873;SDS011;46715;40.642;-7.920;2022-10-16T01:05:34;13.95;;;11.13;;
60873;SDS011;46715;40.642;-7.920;2022-10-16T01:14:41;14.27;;;10.70;;
60873;SDS011;46715;40.642;-7.920;2022-10-16T01:16:56;17.38;;;11.40;;
60873;SDS011;46715;40.642;-7.920;2022-10-16T01:19:05;16.95;;;11.80;;
60873;SDS011;46715;40.642;-7.920;2022-10-16T01:21:13;16.55;;;11.73;;
60873;SDS011;46715;40.642;-7.920;2022-10-16T01:25:29;19.98;;;12.25;;
60873;SDS011;46715;40.642;-7.920;2022-10-16T01:27:40;17.60;;;11.07;;
60873;SDS011;46715;40.642;-7.920;2022-10-16T01:29:48;16.08;;;10.57;;
60873;SDS011;46715;40.642;-7.920;2022-10-16T01:31:55;18.35;;;11.63;;
60873;SDS011;46715;40.642;-7.920;2022-10-16T01:34:00;17.40;;;10.95;;
60873;SDS011;46715;40.642;-7.920;2022-10-16T01:36:13;17.75;;;12.15;;
60873;SDS011;46715;40.642;-7.920;2022-10-16T01:38:28;18.35;;;12.50;;
60873;SDS011;46715;40.642;-7.920;2022-10-16T01:40:34;22.02;;;11.85;;
60873;SDS011;46715;40.642;-7.920;2022-10-16T01:42:40;17.23;;;12.18;;
60873;SDS011;46715;40.642;-7.920;2022-10-16T01:44:44;17.40;;;11.98;;
60873;SDS011;46715;40.642;-7.920;2022-10-16T01:46:48;20.20;;;12.02;;
60873;SDS011;46715;40.642;-7.920;2022-10-16T01:48:52;18.85;;;11.40;;
60873;SDS011;46715;40.642;-7.920;2022-10-16T01:50:57;17.85;;;11.90;;
60873;SDS011;46715;40.642;-7.920;2022-10-16T01:53:12;18.88;;;12.35;;
60873;SDS011;46715;40.642;-7.920;2022-10-16T01:55:17;17.13;;;12.27;;
60873;SDS011;46715;40.642;-7.920;2022-10-16T01:57:22;16.67;;;11.48;;
60873;SDS011;46715;40.642;-7.920;2022-10-16T01:59:26;16.48;;;10.55;;
60873;SDS011;46715;40.642;-7.920;2022-10-16T02:01:33;15.95;;;10.68;;
60873;SDS011;46715;40.642;-7.920;2022-10-16T02:03:36;15.40;;;10.45;;
60873;SDS011;46715;40.642;-7.920;2022-10-16T02:05:51;14.50;;;10.30;;
60873;SDS011;46715;40.642;-7.920;2022-10-16T02:07:55;16.83;;;10.30;;
60873;SDS011;46715;40.642;-7.920;2022-10-16T02:09:59;15.50;;;9.63;;
60873;SDS011;46715;40.642;-7.920;2022-10-16T02:12:03;14.75;;;8.75;;
60873;SDS011;46715;40.642;-7.920;2022-10-16T02:14:13;11.65;;;8.40;;
60873;SDS011;46715;40.642;-7.920;2022-10-16T02:16:14;10.63;;;8.13;;
60873;SDS011;46715;40.642;-7.920;2022-10-16T02:18:16;11.55;;;8.10;;
60873;SDS011;46715;40.642;-7.920;2022-10-16T02:20:16;14.37;;;9.33;;
60873;SDS011;46715;40.642;-7.920;2022-10-16T02:22:33;12.63;;;9.50;;
60873;SDS011;46715;40.642;-7.920;2022-10-16T02:24:43;13.82;;;9.60;;
60873;SDS011;46715;40.642;-7.920;2022-10-16T02:26:52;13.75;;;9.52;;
60873;SDS011;46715;40.642;-7.920;2022-10-16T02:29:20;11.95;;;9.13;;
60873;SDS011;46715;40.642;-7.920;2022-10-16T02:31:27;14.35;;;9.40;;
60873;SDS011;46715;40.642;-7.920;2022-10-16T02:33:32;14.75;;;10.93;;
60873;SDS011;46715;40.642;-7.920;2022-10-16T02:35:35;14.52;;;9.32;;
60873;SDS011;46715;40.642;-7.920;2022-10-16T02:37:38;13.73;;;9.93;;
60873;SDS011;46715;40.642;-7.920;2022-10-16T02:39:40;15.32;;;9.85;;
60873;SDS011;46715;40.642;-7.920;2022-10-16T02:41:42;13.27;;;9.52;;
60873;SDS011;46715;40.642;-7.920;2022-10-16T02:43:44;13.15;;;8.63;;
60873;SDS011;46715;40.642;-7.920;2022-10-16T02:45:44;10.97;;;8.33;;
60873;SDS011;46715;40.642;-7.920;2022-10-16T02:47:45;14.07;;;9.60;;
60873;SDS011;46715;40.642;-7.920;2022-10-16T02:49:46;12.13;;;8.30;;
60873;SDS011;46715;40.642;-7.920;2022-10-16T02:51:47;12.00;;;7.80;;
60873;SDS011;46715;40.642;-7.920;2022-10-16T02:53:47;14.27;;;8.70;;
60873;SDS011;46715;40.642;-7.920;2022-10-16T02:55:48;13.00;;;7.27;;
60873;SDS011;46715;40.642;-7.920;2022-10-16T02:57:49;13.50;;;8.60;;
60873;SDS011;46715;40.642;-7.920;2022-10-16T02:59:50;16.17;;;8.40;;
60873;SDS011;46715;40.642;-7.920;2022-10-16T03:01:51;12.45;;;7.68;;
60873;SDS011;46715;40.642;-7.920;2022-10-16T03:03:52;13.30;;;8.50;;
60873;SDS011;46715;40.642;-7.920;2022-10-16T03:05:52;13.77;;;9.43;;
60873;SDS011;46715;40.642;-7.920;2022-10-16T03:07:53;12.90;;;8.63;;
60873;SDS011;46715;40.642;-7.920;2022-10-16T03:09:54;14.87;;;9.17;;
60873;SDS011;46715;40.642;-7.920;2022-10-16T03:11:55;13.18;;;8.95;;
60873;SDS011;46715;40.642;-7.920;2022-10-16T03:13:56;13.43;;;9.50;;
60873;SDS011;46715;40.642;-7.920;2022-10-16T03:15:57;17.20;;;11.03;;
60873;SDS011;46715;40.642;-7.920;2022-10-16T03:17:58;14.53;;;10.07;;
60873;SDS011;46715;40.642;-7.920;2022-10-16T03:19:59;18.75;;;11.45;;
60873;SDS011;46715;40.642;-7.920;2022-10-16T03:21:59;17.67;;;11.07;;
60873;SDS011;46715;40.642;-7.920;2022-10-16T03:24:00;15.97;;;10.60;;
60873;SDS011;46715;40.642;-7.920;2022-10-16T03:26:01;16.00;;;10.13;;
60873;SDS011;46715;40.642;-7.920;2022-10-16T03:28:02;13.30;;;10.23;;
60873;SDS011;46715;40.642;-7.920;2022-10-16T03:30:03;18.88;;;10.57;;
60873;SDS011;46715;40.642;-7.920;2022-10-16T03:34:05;15.88;;;9.73;;
60873;SDS011;46715;40.642;-7.920;2022-10-16T03:36:06;12.88;;;9.90;;
60873;SDS011;46715;40.642;-7.920;2022-10-16T03:38:07;13.27;;;9.37;;
60873;SDS011;46715;40.642;-7.920;2022-10-16T03:40:08;15.67;;;9.27;;
60873;SDS011;46715;40.642;-7.920;2022-10-16T03:42:09;13.32;;;9.65;;
60873;SDS011;46715;40.642;-7.920;2022-10-16T03:44:10;10.37;;;7.87;;
60873;SDS011;46715;40.642;-7.920;2022-10-16T03:46:10;13.13;;;8.50;;
60873;SDS011;46715;40.642;-7.920;2022-10-16T03:48:11;13.13;;;8.00;;
60873;SDS011;46715;40.642;-7.920;2022-10-16T03:50:12;13.33;;;8.53;;
60873;SDS011;46715;40.642;-7.920;2022-10-16T03:52:13;12.83;;;8.13;;
60873;SDS011;46715;40.642;-7.920;2022-10-16T03:54:13;10.60;;;7.63;;
60873;SDS011;46715;40.642;-7.920;2022-10-16T03:56:14;14.37;;;8.63;;
60873;SDS011;46715;40.642;-7.920;2022-10-16T03:58:15;13.10;;;8.70;;
60873;SDS011;46715;40.642;-7.920;2022-10-16T04:00:16;14.93;;;8.63;;
60873;SDS011;46715;40.642;-7.920;2022-10-16T04:02:17;12.97;;;8.37;;
60873;SDS011;46715;40.642;-7.920;2022-10-16T04:04:18;14.00;;;9.97;;
60873;SDS011;46715;40.642;-7.920;2022-10-16T04:06:19;15.07;;;9.97;;
60873;SDS011;46715;40.642;-7.920;2022-10-16T04:08:20;14.40;;;10.10;;
60873;SDS011;46715;40.642;-7.920;2022-10-16T04:10:21;17.15;;;10.05;;
60873;SDS011;46715;40.642;-7.920;2022-10-16T04:12:22;15.77;;;10.10;;
60873;SDS011;46715;40.642;-7.920;2022-10-16T04:14:22;16.73;;;10.73;;
60873;SDS011;46715;40.642;-7.920;2022-10-16T04:16:23;20.47;;;11.53;;
60873;SDS011;46715;40.642;-7.920;2022-10-16T04:18:24;15.73;;;9.07;;
60873;SDS011;46715;40.642;-7.920;2022-10-16T04:20:27;13.77;;;9.45;;
60873;SDS011;46715;40.642;-7.920;2022-10-16T04:22:28;13.98;;;9.90;;
60873;SDS011;46715;40.642;-7.920;2022-10-16T04:24:30;14.70;;;9.48;;
60873;SDS011;46715;40.642;-7.920;2022-10-16T04:26:30;13.37;;;9.40;;
60873;SDS011;46715;40.642;-7.920;2022-10-16T04:28:31;12.38;;;9.27;;
60873;SDS011;46715;40.642;-7.920;2022-10-16T04:30:32;14.20;;;9.73;;
60873;SDS011;46715;40.642;-7.920;2022-10-16T04:32:34;14.05;;;9.60;;
60873;SDS011;46715;40.642;-7.920;2022-10-16T04:34:34;13.20;;;9.57;;
60873;SDS011;46715;40.642;-7.920;2022-10-16T04:36:35;14.45;;;10.18;;
60873;SDS011;46715;40.642;-7.920;2022-10-16T04:38:36;13.00;;;9.13;;
60873;SDS011;46715;40.642;-7.920;2022-10-16T04:40:38;13.65;;;9.93;;
60873;SDS011;46715;40.642;-7.920;2022-10-16T04:42:39;18.80;;;11.17;;
60873;SDS011;46715;40.642;-7.920;2022-10-16T04:44:40;14.07;;;10.05;;
60873;SDS011;46715;40.642;-7.920;2022-10-16T04:46:41;12.75;;;8.90;;
60873;SDS011;46715;40.642;-7.920;2022-10-16T04:48:42;13.93;;;8.93;;
60873;SDS011;46715;40.642;-7.920;2022-10-16T04:50:43;14.57;;;9.13;;
60873;SDS011;46715;40.642;-7.920;2022-10-16T04:52:44;16.37;;;10.43;;
60873;SDS011;46715;40.642;-7.920;2022-10-16T04:54:44;14.93;;;9.70;;
60873;SDS011;46715;40.642;-7.920;2022-10-16T04:56:45;16.37;;;10.20;;
60873;SDS011;46715;40.642;-7.920;2022-10-16T04:58:50;16.85;;;10.23;;
60873;SDS011;46715;40.642;-7.920;2022-10-16T05:00:52;14.38;;;9.90;;
60873;SDS011;46715;40.642;-7.920;2022-10-16T05:02:52;14.40;;;9.70;;
60873;SDS011;46715;40.642;-7.920;2022-10-16T05:04:53;14.65;;;9.90;;
60873;SDS011;46715;40.642;-7.920;2022-10-16T05:06:54;15.40;;;10.03;;
60873;SDS011;46715;40.642;-7.920;2022-10-16T05:08:55;14.33;;;9.63;;
60873;SDS011;46715;40.642;-7.920;2022-10-16T05:10:56;13.97;;;9.53;;
60873;SDS011;46715;40.642;-7.920;2022-10-16T05:12:56;15.43;;;10.63;;
60873;SDS011;46715;40.642;-7.920;2022-10-16T05:14:57;17.30;;;11.03;;
60873;SDS011;46715;40.642;-7.920;2022-10-16T05:16:59;18.48;;;11.70;;
60873;SDS011;46715;40.642;-7.920;2022-10-16T05:19:01;16.48;;;11.00;;
60873;SDS011;46715;40.642;-7.920;2022-10-16T05:21:02;16.10;;;10.80;;
60873;SDS011;46715;40.642;-7.920;2022-10-16T05:23:03;17.23;;;10.87;;
60873;SDS011;46715;40.642;-7.920;2022-10-16T05:25:05;16.15;;;10.65;;
60873;SDS011;46715;40.642;-7.920;2022-10-16T05:27:06;12.93;;;9.13;;
60873;SDS011;46715;40.642;-7.920;2022-10-16T05:29:06;15.50;;;10.37;;
60873;SDS011;46715;40.642;-7.920;2022-10-16T05:31:08;16.27;;;10.27;;
60873;SDS011;46715;40.642;-7.920;2022-10-16T05:33:10;15.35;;;9.85;;
60873;SDS011;46715;40.642;-7.920;2022-10-16T05:35:10;13.73;;;9.77;;
60873;SDS011;46715;40.642;-7.920;2022-10-16T05:37:11;15.33;;;10.33;;
60873;SDS011;46715;40.642;-7.920;2022-10-16T05:39:13;14.57;;;10.25;;
60873;SDS011;46715;40.642;-7.920;2022-10-16T05:41:15;13.70;;;9.77;;
60873;SDS011;46715;40.642;-7.920;2022-10-16T05:43:21;14.30;;;9.50;;
60873;SDS011;46715;40.642;-7.920;2022-10-16T05:47:24;14.40;;;8.48;;
60873;SDS011;46715;40.642;-7.920;2022-10-16T05:49:25;14.67;;;10.17;;
60873;SDS011;46715;40.642;-7.920;2022-10-16T05:51:25;13.97;;;10.00;;
60873;SDS011;46715;40.642;-7.920;2022-10-16T05:53:29;14.77;;;9.40;;
60873;SDS011;46715;40.642;-7.920;2022-10-16T05:55:31;13.57;;;9.52;;
60873;SDS011;46715;40.642;-7.920;2022-10-16T05:57:32;12.48;;;9.38;;
60873;SDS011;46715;40.642;-7.920;2022-10-16T05:59:33;11.87;;;8.20;;
60873;SDS011;46715;40.642;-7.920;2022-10-16T06:01:34;12.27;;;8.07;;
60873;SDS011;46715;40.642;-7.920;2022-10-16T06:03:35;11.48;;;8.52;;
60873;SDS011;46715;40.642;-7.920;2022-10-16T06:05:36;11.23;;;7.60;;
60873;SDS011;46715;40.642;-7.920;2022-10-16T06:07:37;8.77;;;6.65;;
60873;SDS011;46715;40.642;-7.920;2022-10-16T06:09:39;11.60;;;7.32;;
60873;SDS011;46715;40.642;-7.920;2022-10-16T06:11:40;11.70;;;7.10;;
60873;SDS011;46715;40.642;-7.920;2022-10-16T06:13:41;9.30;;;6.13;;
60873;SDS011;46715;40.642;-7.920;2022-10-16T06:17:43;11.93;;;7.05;;
60873;SDS011;46715;40.642;-7.920;2022-10-16T06:19:44;9.47;;;7.73;;
60873;SDS011;46715;40.642;-7.920;2022-10-16T06:21:45;9.95;;;6.72;;
60873;SDS011;46715;40.642;-7.920;2022-10-16T06:23:46;10.30;;;6.57;;
60873;SDS011;46715;40.642;-7.920;2022-10-16T06:25:47;8.38;;;6.38;;
60873;SDS011;46715;40.642;-7.920;2022-10-16T06:27:48;9.10;;;6.43;;
60873;SDS011;46715;40.642;-7.920;2022-10-16T06:29:49;8.80;;;7.05;;
60873;SDS011;46715;40.642;-7.920;2022-10-16T06:31:50;11.27;;;6.23;;
60873;SDS011;46715;40.642;-7.920;2022-10-16T06:33:51;8.57;;;6.33;;
60873;SDS011;46715;40.642;-7.920;2022-10-16T06:35:51;8.83;;;5.87;;
60873;SDS011;46715;40.642;-7.920;2022-10-16T06:37:53;7.50;;;5.40;;
60873;SDS011;46715;40.642;-7.920;2022-10-16T06:39:54;6.47;;;5.27;;
60873;SDS011;46715;40.642;-7.920;2022-10-16T06:41:54;7.10;;;5.37;;
60873;SDS011;46715;40.642;-7.920;2022-10-16T06:43:55;7.82;;;4.97;;
60873;SDS011;46715;40.642;-7.920;2022-10-16T06:45:56;8.88;;;4.65;;
60873;SDS011;46715;40.642;-7.920;2022-10-16T06:47:58;5.53;;;4.47;;
60873;SDS011;46715;40.642;-7.920;2022-10-16T06:49:58;4.80;;;3.93;;
60873;SDS011;46715;40.642;-7.920;2022-10-16T06:51:59;5.30;;;4.00;;
60873;SDS011;46715;40.642;-7.920;2022-10-16T06:54:01;4.72;;;3.67;;
60873;SDS011;46715;40.642;-7.920;2022-10-16T06:56:15;5.97;;;3.90;;
60873;SDS011;46715;40.642;-7.920;2022-10-16T06:58:18;5.05;;;3.83;;
60873;SDS011;46715;40.642;-7.920;2022-10-16T07:00:19;6.63;;;3.47;;
60873;SDS011;46715;40.642;-7.920;2022-10-16T07:02:20;6.03;;;3.40;;
60873;SDS011;46715;40.642;-7.920;2022-10-16T07:04:21;4.40;;;3.43;;
60873;SDS011;46715;40.642;-7.920;2022-10-16T07:06:22;4.10;;;3.25;;
60873;SDS011;46715;40.642;-7.920;2022-10-16T07:08:24;3.83;;;2.95;;
60873;SDS011;46715;40.642;-7.920;2022-10-16T07:10:25;5.83;;;3.43;;
60873;SDS011;46715;40.642;-7.920;2022-10-16T07:12:25;4.03;;;3.33;;
60873;SDS011;46715;40.642;-7.920;2022-10-16T07:14:26;6.50;;;3.38;;
60873;SDS011;46715;40.642;-7.920;2022-10-16T07:16:28;4.60;;;3.20;;
60873;SDS011;46715;40.642;-7.920;2022-10-16T07:18:31;5.07;;;3.47;;
60873;SDS011;46715;40.642;-7.920;2022-10-16T07:20:32;5.75;;;3.13;;
60873;SDS011;46715;40.642;-7.920;2022-10-16T07:22:33;5.78;;;3.22;;
60873;SDS011;46715;40.642;-7.920;2022-10-16T07:24:34;3.87;;;3.20;;
60873;SDS011;46715;40.642;-7.920;2022-10-16T07:26:35;3.90;;;2.90;;
60873;SDS011;46715;40.642;-7.920;2022-10-16T07:28:37;4.57;;;3.22;;
60873;SDS011;46715;40.642;-7.920;2022-10-16T07:30:39;4.55;;;3.10;;
60873;SDS011;46715;40.642;-7.920;2022-10-16T07:32:40;3.63;;;2.80;;
60873;SDS011;46715;40.642;-7.920;2022-10-16T07:34:41;4.30;;;2.80;;
60873;SDS011;46715;40.642;-7.920;2022-10-16T07:36:42;3.10;;;2.67;;
60873;SDS011;46715;40.642;-7.920;2022-10-16T07:38:43;2.80;;;2.50;;
60873;SDS011;46715;40.642;-7.920;2022-10-16T07:40:44;3.40;;;2.45;;
60873;SDS011;46715;40.642;-7.920;2022-10-16T07:42:45;4.37;;;2.33;;
60873;SDS011;46715;40.642;-7.920;2022-10-16T07:44:46;2.97;;;1.93;;
60873;SDS011;46715;40.642;-7.920;2022-10-16T07:46:47;3.40;;;1.70;;
60873;SDS011;46715;40.642;-7.920;2022-10-16T07:48:47;3.47;;;2.20;;
60873;SDS011;46715;40.642;-7.920;2022-10-16T07:50:49;4.10;;;2.33;;
60873;SDS011;46715;40.642;-7.920;2022-10-16T07:52:50;2.87;;;2.30;;
60873;SDS011;46715;40.642;-7.920;2022-10-16T07:54:51;3.20;;;2.17;;
60873;SDS011;46715;40.642;-7.920;2022-10-16T07:56:51;5.57;;;1.97;;
60873;SDS011;46715;40.642;-7.920;2022-10-16T07:58:52;3.33;;;2.43;;
60873;SDS011;46715;40.642;-7.920;2022-10-16T08:00:53;3.13;;;2.70;;
60873;SDS011;46715;40.642;-7.920;2022-10-16T08:02:54;3.13;;;2.40;;
60873;SDS011;46715;40.642;-7.920;2022-10-16T08:05:00;2.53;;;2.10;;
60873;SDS011;46715;40.642;-7.920;2022-10-16T08:07:00;3.47;;;2.23;;
60873;SDS011;46715;40.642;-7.920;2022-10-16T08:09:01;4.53;;;2.10;;
60873;SDS011;46715;40.642;-7.920;2022-10-16T08:11:02;3.40;;;2.50;;
60873;SDS011;46715;40.642;-7.920;2022-10-16T08:13:05;3.28;;;2.53;;
60873;SDS011;46715;40.642;-7.920;2022-10-16T08:15:07;2.55;;;2.05;;
60873;SDS011;46715;40.642;-7.920;2022-10-16T08:17:08;2.70;;;2.00;;
60873;SDS011;46715;40.642;-7.920;2022-10-16T08:19:09;1.60;;;1.42;;
60873;SDS011;46715;40.642;-7.920;2022-10-16T08:21:14;3.63;;;1.77;;
60873;SDS011;46715;40.642;-7.920;2022-10-16T08:23:16;3.60;;;2.13;;
60873;SDS011;46715;40.642;-7.920;2022-10-16T08:25:17;3.07;;;2.20;;
60873;SDS011;46715;40.642;-7.920;2022-10-16T08:27:18;4.68;;;3.03;;
60873;SDS011;46715;40.642;-7.920;2022-10-16T08:29:18;2.60;;;2.37;;
60873;SDS011;46715;40.642;-7.920;2022-10-16T08:31:19;3.13;;;2.75;;
60873;SDS011;46715;40.642;-7.920;2022-10-16T08:33:21;2.83;;;2.38;;
60873;SDS011;46715;40.642;-7.920;2022-10-16T08:35:22;3.20;;;2.47;;
60873;SDS011;46715;40.642;-7.920;2022-10-16T08:37:22;9.77;;;6.30;;
60873;SDS011;46715;40.642;-7.920;2022-10-16T08:39:23;4.32;;;3.40;;
60873;SDS011;46715;40.642;-7.920;2022-10-16T08:50:47;2.67;;;1.83;;
60873;SDS011;46715;40.642;-7.920;2022-10-16T08:52:50;4.35;;;2.50;;
60873;SDS011;46715;40.642;-7.920;2022-10-16T08:54:52;3.88;;;2.33;;
60873;SDS011;46715;40.642;-7.920;2022-10-16T08:56:57;3.53;;;2.45;;
60873;SDS011;46715;40.642;-7.920;2022-10-16T08:59:11;3.17;;;2.45;;
60873;SDS011;46715;40.642;-7.920;2022-10-16T09:01:15;3.28;;;2.13;;
60873;SDS011;46715;40.642;-7.920;2022-10-16T09:10:22;4.22;;;1.88;;
60873;SDS011;46715;40.642;-7.920;2022-10-16T09:16:54;1.73;;;1.40;;
60873;SDS011;46715;40.642;-7.920;2022-10-16T09:19:03;2.33;;;1.70;;
60873;SDS011;46715;40.642;-7.920;2022-10-16T09:21:14;3.08;;;1.67;;
60873;SDS011;46715;40.642;-7.920;2022-10-16T09:23:22;2.10;;;1.65;;
60873;SDS011;46715;40.642;-7.920;2022-10-16T09:25:27;1.63;;;1.33;;
60873;SDS011;46715;40.642;-7.920;2022-10-16T09:27:28;2.05;;;1.35;;
60873;SDS011;46715;40.642;-7.920;2022-10-16T09:29:29;3.47;;;1.70;;
60873;SDS011;46715;40.642;-7.920;2022-10-16T09:31:30;1.60;;;1.23;;
60873;SDS011;46715;40.642;-7.920;2022-10-16T09:33:36;2.22;;;1.38;;
60873;SDS011;46715;40.642;-7.920;2022-10-16T09:35:40;3.78;;;1.90;;
60873;SDS011;46715;40.642;-7.920;2022-10-16T09:37:45;2.72;;;1.30;;
60873;SDS011;46715;40.642;-7.920;2022-10-16T09:39:50;2.35;;;1.80;;
60873;SDS011;46715;40.642;-7.920;2022-10-16T09:41:52;2.80;;;1.52;;
60873;SDS011;46715;40.642;-7.920;2022-10-16T09:43:59;2.10;;;1.40;;
60873;SDS011;46715;40.642;-7.920;2022-10-16T09:46:06;2.75;;;1.15;;
60873;SDS011;46715;40.642;-7.920;2022-10-16T09:48:12;2.13;;;1.10;;
60873;SDS011;46715;40.642;-7.920;2022-10-16T09:50:28;2.22;;;1.55;;
60873;SDS011;46715;40.642;-7.920;2022-10-16T09:52:29;1.75;;;1.25;;
60873;SDS011;46715;40.642;-7.920;2022-10-16T09:54:30;2.35;;;1.40;;
60873;SDS011;46715;40.642;-7.920;2022-10-16T09:56:32;1.37;;;1.00;;
60873;SDS011;46715;40.642;-7.920;2022-10-16T09:58:36;1.20;;;0.95;;
60873;SDS011;46715;40.642;-7.920;2022-10-16T10:02:41;1.67;;;1.30;;
60873;SDS011;46715;40.642;-7.920;2022-10-16T10:04:45;3.75;;;1.10;;
60873;SDS011;46715;40.642;-7.920;2022-10-16T10:06:51;1.92;;;1.40;;
60873;SDS011;46715;40.642;-7.920;2022-10-16T10:08:58;1.67;;;1.30;;
60873;SDS011;46715;40.642;-7.920;2022-10-16T10:11:02;1.83;;;1.20;;
60873;SDS011;46715;40.642;-7.920;2022-10-16T10:13:14;1.52;;;0.90;;
60873;SDS011;46715;40.642;-7.920;2022-10-16T10:15:22;0.93;;;0.80;;
60873;SDS011;46715;40.642;-7.920;2022-10-16T10:17:25;1.35;;;1.17;;
60873;SDS011;46715;40.642;-7.920;2022-10-16T10:19:28;1.10;;;0.88;;
60873;SDS011;46715;40.642;-7.920;2022-10-16T10:21:28;1.10;;;0.90;;
60873;SDS011;46715;40.642;-7.920;2022-10-16T10:23:29;1.67;;;0.80;;
60873;SDS011;46715;40.642;-7.920;2022-10-16T10:30:01;1.52;;;0.80;;
60873;SDS011;46715;40.642;-7.920;2022-10-16T10:36:39;1.20;;;0.80;;
60873;SDS011;46715;40.642;-7.920;2022-10-16T10:41:01;0.93;;;0.70;;
60873;SDS011;46715;40.642;-7.920;2022-10-16T10:45:41;1.50;;;0.80;;
60873;SDS011;46715;40.642;-7.920;2022-10-16T10:48:02;1.75;;;0.75;;
60873;SDS011;46715;40.642;-7.920;2022-10-16T10:57:02;1.52;;;0.95;;
60873;SDS011;46715;40.642;-7.920;2022-10-16T11:00:10;1.52;;;0.73;;
60873;SDS011;46715;40.642;-7.920;2022-10-16T11:02:10;1.48;;;0.95;;
60873;SDS011;46715;40.642;-7.920;2022-10-16T11:04:37;2.03;;;1.17;;
60873;SDS011;46715;40.642;-7.920;2022-10-16T11:07:04;3.15;;;1.10;;
60873;SDS011;46715;40.642;-7.920;2022-10-16T11:11:20;1.00;;;0.70;;
60873;SDS011;46715;40.642;-7.920;2022-10-16T11:13:39;1.17;;;0.75;;
60873;SDS011;46715;40.642;-7.920;2022-10-16T11:15:59;1.77;;;0.70;;
60873;SDS011;46715;40.642;-7.920;2022-10-16T11:18:08;0.60;;;0.60;;
60873;SDS011;46715;40.642;-7.920;2022-10-16T11:20:19;0.88;;;0.60;;
60873;SDS011;46715;40.642;-7.920;2022-10-16T11:22:24;0.60;;;0.60;;
60873;SDS011;46715;40.642;-7.920;2022-10-16T11:24:34;0.63;;;0.40;;
60873;SDS011;46715;40.642;-7.920;2022-10-16T11:26:36;1.30;;;0.80;;
60873;SDS011;46715;40.642;-7.920;2022-10-16T11:28:43;1.17;;;0.90;;
60873;SDS011;46715;40.642;-7.920;2022-10-16T11:30:59;1.80;;;0.60;;
60873;SDS011;46715;40.642;-7.920;2022-10-16T11:35:15;1.05;;;0.60;;
60873;SDS011;46715;40.642;-7.920;2022-10-16T11:37:32;0.68;;;0.57;;
60873;SDS011;46715;40.642;-7.920;2022-10-16T11:39:38;0.80;;;0.60;;
60873;SDS011;46715;40.642;-7.920;2022-10-16T11:43:59;0.68;;;0.52;;
60873;SDS011;46715;40.642;-7.920;2022-10-16T11:46:15;3.58;;;0.85;;
60873;SDS011;46715;40.642;-7.920;2022-10-16T11:50:57;1.13;;;0.80;;
60873;SDS011;46715;40.642;-7.920;2022-10-16T11:55:38;1.00;;;0.70;;
60873;SDS011;46715;40.642;-7.920;2022-10-16T11:57:43;2.05;;;0.70;;
60873;SDS011;46715;40.642;-7.920;2022-10-16T12:00:08;2.53;;;0.60;;
60873;SDS011;46715;40.642;-7.920;2022-10-16T12:09:19;1.00;;;0.90;;
60873;SDS011;46715;40.642;-7.920;2022-10-16T12:11:31;1.00;;;0.70;;
60873;SDS011;46715;40.642;-7.920;2022-10-16T12:13:35;1.08;;;0.80;;
60873;SDS011;46715;40.642;-7.920;2022-10-16T12:15:38;1.08;;;0.85;;
60873;SDS011;46715;40.642;-7.920;2022-10-16T12:17:39;1.35;;;0.90;;
60873;SDS011;46715;40.642;-7.920;2022-10-16T12:19:39;1.20;;;0.60;;
60873;SDS011;46715;40.642;-7.920;2022-10-16T12:21:41;1.95;;;0.75;;
60873;SDS011;46715;40.642;-7.920;2022-10-16T12:25:53;0.77;;;0.60;;
60873;SDS011;46715;40.642;-7.920;2022-10-16T12:30:03;1.15;;;0.63;;
60873;SDS011;46715;40.642;-7.920;2022-10-16T12:32:28;1.15;;;0.75;;
60873;SDS011;46715;40.642;-7.920;2022-10-16T12:34:37;1.20;;;0.75;;
60873;SDS011;46715;40.642;-7.920;2022-10-16T12:36:42;2.00;;;0.90;;
60873;SDS011;46715;40.642;-7.920;2022-10-16T12:38:52;1.40;;;0.85;;
60873;SDS011;46715;40.642;-7.920;2022-10-16T12:40:55;1.20;;;0.73;;
60873;SDS011;46715;40.642;-7.920;2022-10-16T12:43:10;3.88;;;1.20;;
60873;SDS011;46715;40.642;-7.920;2022-10-16T12:49:38;1.30;;;0.93;;
60873;SDS011;46715;40.642;-7.920;2022-10-16T12:51:51;1.50;;;0.90;;
60873;SDS011;46715;40.642;-7.920;2022-10-16T12:54:01;1.52;;;0.93;;
60873;SDS011;46715;40.642;-7.920;2022-10-16T13:12:45;1.33;;;0.93;;
60873;SDS011;46715;40.642;-7.920;2022-10-16T13:22:38;1.50;;;0.80;;
60873;SDS011;46715;40.642;-7.920;2022-10-16T13:28:00;1.38;;;0.93;;
60873;SDS011;46715;40.642;-7.920;2022-10-16T13:30:18;1.70;;;1.00;;
60873;SDS011;46715;40.642;-7.920;2022-10-16T13:32:22;2.50;;;0.80;;
60873;SDS011;46715;40.642;-7.920;2022-10-16T13:34:22;1.02;;;0.80;;
60873;SDS011;46715;40.642;-7.920;2022-10-16T13:36:27;2.40;;;1.15;;
60873;SDS011;46715;40.642;-7.920;2022-10-16T13:38:31;2.85;;;1.10;;
60873;SDS011;46715;40.642;-7.920;2022-10-16T13:40:47;3.05;;;1.10;;
60873;SDS011;46715;40.642;-7.920;2022-10-16T13:42:49;1.55;;;1.10;;
60873;SDS011;46715;40.642;-7.920;2022-10-16T13:44:54;1.40;;;1.10;;
60873;SDS011;46715;40.642;-7.920;2022-10-16T13:46:59;1.80;;;1.33;;
60873;SDS011;46715;40.642;-7.920;2022-10-16T13:53:16;1.65;;;1.00;;
60873;SDS011;46715;40.642;-7.920;2022-10-16T13:55:17;1.77;;;1.00;;
60873;SDS011;46715;40.642;-7.920;2022-10-16T13:57:21;1.42;;;0.95;;
60873;SDS011;46715;40.642;-7.920;2022-10-16T13:59:25;1.70;;;1.20;;
60873;SDS011;46715;40.642;-7.920;2022-10-16T14:01:42;1.48;;;1.00;;
60873;SDS011;46715;40.642;-7.920;2022-10-16T14:03:44;1.55;;;0.80;;
60873;SDS011;46715;40.642;-7.920;2022-10-16T14:05:47;3.08;;;1.05;;
60873;SDS011;46715;40.642;-7.920;2022-10-16T14:07:51;1.67;;;0.80;;
60873;SDS011;46715;40.642;-7.920;2022-10-16T14:09:54;1.38;;;0.93;;